sensor_id;sensor_type;location;lat;lon;timestamp;pressure;altitude;pressure_sealevel;temperature;humidity
49178;BME280;35016;55.674;37.468;2023-06-14T00:00:04;99436.38;;;14.01;32.32
49178;BME280;35016;55.674;37.468;2023-06-14T00:02:32;99444.84;;;13.99;32.29
49178;BME280;35016;55.674;37.468;2023-06-14T00:04:59;99440.47;;;13.98;32.26
49178;BME280;35016;55.674;37.468;2023-06-14T00:07:33;99434.50;;;13.96;32.40
49178;BME280;35016;55.674;37.468;2023-06-14T00:10:01;99441.03;;;13.95;32.41
49178;BME280;35016;55.674;37.468;2023-06-14T00:12:28;99441.63;;;13.92;32.56
49178;BME280;35016;55.674;37.468;2023-06-14T00:14:55;99442.19;;;13.89;32.51
49178;BME280;35016;55.674;37.468;2023-06-14T00:17:22;99440.00;;;13.86;32.61
49178;BME280;35016;55.674;37.468;2023-06-14T00:19:50;99439.47;;;13.84;32.64
49178;BME280;35016;55.674;37.468;2023-06-14T00:22:17;99439.75;;;13.82;32.69
49178;BME280;35016;55.674;37.468;2023-06-14T00:24:44;99440.31;;;13.79;32.82
49178;BME280;35016;55.674;37.468;2023-06-14T00:27:11;99441.41;;;13.78;32.72
49178;BME280;35016;55.674;37.468;2023-06-14T00:29:38;99440.34;;;13.74;32.90
49178;BME280;35016;55.674;37.468;2023-06-14T00:32:05;99439.81;;;13.72;32.84
49178;BME280;35016;55.674;37.468;2023-06-14T00:34:32;99437.66;;;13.69;32.96
49178;BME280;35016;55.674;37.468;2023-06-14T00:37:00;99440.66;;;13.68;32.83
49178;BME280;35016;55.674;37.468;2023-06-14T00:39:27;99441.22;;;13.64;33.13
49178;BME280;35016;55.674;37.468;2023-06-14T00:41:54;99440.69;;;13.62;33.24
49178;BME280;35016;55.674;37.468;2023-06-14T00:44:21;99442.63;;;13.62;33.08
49178;BME280;35016;55.674;37.468;2023-06-14T00:46:48;99434.16;;;13.63;33.17
49178;BME280;35016;55.674;37.468;2023-06-14T00:49:15;99434.97;;;13.64;33.10
49178;BME280;35016;55.674;37.468;2023-06-14T00:51:42;99428.69;;;13.63;33.04
49178;BME280;35016;55.674;37.468;2023-06-14T00:54:09;99436.88;;;13.63;33.28
49178;BME280;35016;55.674;37.468;2023-06-14T00:56:36;99434.97;;;13.64;33.10
49178;BME280;35016;55.674;37.468;2023-06-14T00:59:03;99435.78;;;13.64;33.43
49178;BME280;35016;55.674;37.468;2023-06-14T01:01:30;99434.97;;;13.64;33.10
49178;BME280;35016;55.674;37.468;2023-06-14T01:04:00;99432.25;;;13.64;33.29
49178;BME280;35016;55.674;37.468;2023-06-14T01:07:11;99440.41;;;13.64;33.45
49178;BME280;35016;55.674;37.468;2023-06-14T01:09:19;99431.97;;;13.66;33.40
49178;BME280;35016;55.674;37.468;2023-06-14T01:12:00;99434.16;;;13.63;33.55
49178;BME280;35016;55.674;37.468;2023-06-14T01:14:31;99435.25;;;13.62;33.48
49178;BME280;35016;55.674;37.468;2023-06-14T01:17:00;99432.25;;;13.64;33.50
49178;BME280;35016;55.674;37.468;2023-06-14T01:19:29;99429.50;;;13.64;33.59
49178;BME280;35016;55.674;37.468;2023-06-14T01:21:59;99433.06;;;13.64;33.53
49178;BME280;35016;55.674;37.468;2023-06-14T01:24:27;99437.69;;;13.64;33.74
49178;BME280;35016;55.674;37.468;2023-06-14T01:26:59;99437.69;;;13.64;33.50
49178;BME280;35016;55.674;37.468;2023-06-14T01:29:27;99433.88;;;13.65;33.71
49178;BME280;35016;55.674;37.468;2023-06-14T01:31:59;99439.84;;;13.67;33.60
49178;BME280;35016;55.674;37.468;2023-06-14T01:34:29;99439.84;;;13.67;33.93
49178;BME280;35016;55.674;37.468;2023-06-14T01:36:56;99442.81;;;13.71;34.01
49178;BME280;35016;55.674;37.468;2023-06-14T01:39:24;99443.06;;;13.74;33.85
49178;BME280;35016;55.674;37.468;2023-06-14T01:41:54;99443.59;;;13.76;33.88
49178;BME280;35016;55.674;37.468;2023-06-14T01:44:21;99443.03;;;13.79;33.78
49178;BME280;35016;55.674;37.468;2023-06-14T01:46:49;99445.19;;;13.82;33.88
49178;BME280;35016;55.674;37.468;2023-06-14T01:49:16;99448.16;;;13.86;33.79
49178;BME280;35016;55.674;37.468;2023-06-14T01:51:43;99454.72;;;13.90;33.80
49178;BME280;35016;55.674;37.468;2023-06-14T01:54:10;99447.06;;;13.92;33.88
49178;BME280;35016;55.674;37.468;2023-06-14T01:56:37;99448.41;;;13.94;33.85
49178;BME280;35016;55.674;37.468;2023-06-14T01:59:05;99456.03;;;13.98;33.66
49178;BME280;35016;55.674;37.468;2023-06-14T02:01:32;99447.00;;;14.02;33.86
49178;BME280;35016;55.674;37.468;2023-06-14T02:04:01;99448.34;;;14.05;34.02
49178;BME280;35016;55.674;37.468;2023-06-14T02:06:28;99448.56;;;14.08;33.86
49178;BME280;35016;55.674;37.468;2023-06-14T02:08:55;99437.91;;;14.12;34.03
49178;BME280;35016;55.674;37.468;2023-06-14T02:11:22;99438.16;;;14.15;34.11
49178;BME280;35016;55.674;37.468;2023-06-14T02:13:49;99432.16;;;14.18;34.12
49178;BME280;35016;55.674;37.468;2023-06-14T02:16:17;99427.75;;;14.22;34.13
49178;BME280;35016;55.674;37.468;2023-06-14T02:18:44;99435.38;;;14.25;34.05
49178;BME280;35016;55.674;37.468;2023-06-14T02:21:11;99430.16;;;14.29;34.13
49178;BME280;35016;55.674;37.468;2023-06-14T02:23:38;99433.13;;;14.33;34.16
49178;BME280;35016;55.674;37.468;2023-06-14T02:26:05;99436.91;;;14.37;34.34
49178;BME280;35016;55.674;37.468;2023-06-14T02:28:33;99434.41;;;14.40;34.27
49178;BME280;35016;55.674;37.468;2023-06-14T02:31:02;99434.41;;;14.45;34.08
49178;BME280;35016;55.674;37.468;2023-06-14T02:33:29;99437.09;;;14.50;34.40
49178;BME280;35016;55.674;37.468;2023-06-14T02:35:56;99437.06;;;14.55;34.41
49178;BME280;35016;55.674;37.468;2023-06-14T02:38:23;99437.00;;;14.61;34.45
49178;BME280;35016;55.674;37.468;2023-06-14T02:40:50;99436.13;;;14.65;34.15
49178;BME280;35016;55.674;37.468;2023-06-14T02:43:17;99445.91;;;14.71;34.40
49178;BME280;35016;55.674;37.468;2023-06-14T02:45:44;99451.63;;;14.75;34.29
49178;BME280;35016;55.674;37.468;2023-06-14T02:48:13;99450.75;;;14.79;34.47
49178;BME280;35016;55.674;37.468;2023-06-14T02:50:40;99444.94;;;14.86;34.39
49178;BME280;35016;55.674;37.468;2023-06-14T02:53:07;99455.81;;;14.91;34.46
49178;BME280;35016;55.674;37.468;2023-06-14T02:55:33;99454.94;;;14.96;34.31
49178;BME280;35016;55.674;37.468;2023-06-14T02:58:07;99450.22;;;15.01;34.33
49178;BME280;35016;55.674;37.468;2023-06-14T03:00:34;99457.28;;;15.07;34.34
49178;BME280;35016;55.674;37.468;2023-06-14T03:03:03;99462.69;;;15.12;34.59
49178;BME280;35016;55.674;37.468;2023-06-14T03:05:32;99462.34;;;15.19;34.24
49178;BME280;35016;55.674;37.468;2023-06-14T03:07:59;99459.25;;;15.26;34.43
49178;BME280;35016;55.674;37.468;2023-06-14T03:10:26;99452.34;;;15.33;34.45
49178;BME280;35016;55.674;37.468;2023-06-14T03:12:57;99457.47;;;15.40;34.39
49178;BME280;35016;55.674;37.468;2023-06-14T03:15:24;99459.00;;;15.46;34.36
49178;BME280;35016;55.674;37.468;2023-06-14T03:17:51;99464.94;;;15.53;34.29
49178;BME280;35016;55.674;37.468;2023-06-14T03:20:20;99459.13;;;15.60;34.58
49178;BME280;35016;55.674;37.468;2023-06-14T03:22:47;99455.25;;;15.66;34.38
49178;BME280;35016;55.674;37.468;2023-06-14T03:25:15;99466.63;;;15.73;34.45
49178;BME280;35016;55.674;37.468;2023-06-14T03:27:45;99460.28;;;15.77;34.70
49178;BME280;35016;55.674;37.468;2023-06-14T03:30:12;99460.72;;;15.85;34.47
49178;BME280;35016;55.674;37.468;2023-06-14T03:32:41;99450.81;;;15.89;34.60
49178;BME280;35016;55.674;37.468;2023-06-14T03:35:08;99450.47;;;15.95;34.38
49178;BME280;35016;55.674;37.468;2023-06-14T03:37:35;99452.81;;;16.02;34.56
49178;BME280;35016;55.674;37.468;2023-06-14T03:40:03;99446.44;;;16.06;34.44
49178;BME280;35016;55.674;37.468;2023-06-14T03:42:35;99452.66;;;16.12;34.26
49178;BME280;35016;55.674;37.468;2023-06-14T03:45:02;99449.53;;;16.19;34.28
49178;BME280;35016;55.674;37.468;2023-06-14T03:47:30;99451.09;;;16.25;34.35
49178;BME280;35016;55.674;37.468;2023-06-14T03:49:57;99452.66;;;16.31;34.19
49178;BME280;35016;55.674;37.468;2023-06-14T03:52:24;99450.34;;;16.38;34.50
49178;BME280;35016;55.674;37.468;2023-06-14T03:54:51;99453.78;;;16.43;34.39
49178;BME280;35016;55.674;37.468;2023-06-14T03:57:23;99457.78;;;16.51;34.61
49178;BME280;35016;55.674;37.468;2023-06-14T03:59:50;99460.97;;;16.58;34.10
49178;BME280;35016;55.674;37.468;2023-06-14T04:02:18;99459.47;;;16.66;34.61
49178;BME280;35016;55.674;37.468;2023-06-14T04:04:45;99461.00;;;16.72;34.33
49178;BME280;35016;55.674;37.468;2023-06-14T04:07:12;99456.78;;;16.80;34.09
49178;BME280;35016;55.674;37.468;2023-06-14T04:09:39;99455.88;;;16.84;34.52
49178;BME280;35016;55.674;37.468;2023-06-14T04:12:07;99454.38;;;16.92;34.05
49178;BME280;35016;55.674;37.468;2023-06-14T04:14:39;99458.94;;;16.96;34.23
49178;BME280;35016;55.674;37.468;2023-06-14T04:17:08;99457.72;;;17.02;34.14
49178;BME280;35016;55.674;37.468;2023-06-14T04:19:36;99458.44;;;17.08;34.13
49178;BME280;35016;55.674;37.468;2023-06-14T04:22:03;99463.53;;;17.15;34.35
49178;BME280;35016;55.674;37.468;2023-06-14T04:24:33;99462.81;;;17.23;34.28
49178;BME280;35016;55.674;37.468;2023-06-14T04:27:02;99458.84;;;17.29;34.29
49178;BME280;35016;55.674;37.468;2023-06-14T04:29:30;99454.91;;;17.35;34.25
49178;BME280;35016;55.674;37.468;2023-06-14T04:32:05;99459.38;;;17.45;34.07
49178;BME280;35016;55.674;37.468;2023-06-14T04:34:32;99443.63;;;17.50;34.34
49178;BME280;35016;55.674;37.468;2023-06-14T04:37:02;99456.91;;;17.57;34.31
49178;BME280;35016;55.674;37.468;2023-06-14T04:39:33;99454.59;;;17.64;34.28
49178;BME280;35016;55.674;37.468;2023-06-14T04:42:00;99453.06;;;17.72;34.10
49178;BME280;35016;55.674;37.468;2023-06-14T04:44:32;99451.84;;;17.78;34.12
49178;BME280;35016;55.674;37.468;2023-06-14T04:47:01;99453.84;;;17.86;34.23
49178;BME280;35016;55.674;37.468;2023-06-14T04:49:28;99455.88;;;17.94;34.03
49178;BME280;35016;55.674;37.468;2023-06-14T04:51:57;99459.81;;;18.02;34.27
49178;BME280;35016;55.674;37.468;2023-06-14T04:54:30;99456.00;;;18.11;34.05
49178;BME280;35016;55.674;37.468;2023-06-14T04:57:01;99451.41;;;18.20;34.08
49178;BME280;35016;55.674;37.468;2023-06-14T04:59:29;99447.13;;;18.28;34.04
49178;BME280;35016;55.674;37.468;2023-06-14T05:02:00;99450.22;;;18.35;33.92
49178;BME280;35016;55.674;37.468;2023-06-14T05:04:27;99451.41;;;18.43;33.87
49178;BME280;35016;55.674;37.468;2023-06-14T05:06:56;99447.41;;;18.49;33.76
49178;BME280;35016;55.674;37.468;2023-06-14T05:09:24;99443.75;;;18.53;34.00
49178;BME280;35016;55.674;37.468;2023-06-14T05:11:51;99444.75;;;18.57;33.93
49178;BME280;35016;55.674;37.468;2023-06-14T05:14:19;99453.69;;;18.63;34.00
49178;BME280;35016;55.674;37.468;2023-06-14T05:16:46;99458.22;;;18.68;33.83
49178;BME280;35016;55.674;37.468;2023-06-14T05:19:15;99446.28;;;18.72;33.94
49178;BME280;35016;55.674;37.468;2023-06-14T05:21:45;99443.41;;;18.77;33.85
49178;BME280;35016;55.674;37.468;2023-06-14T05:24:12;99444.59;;;18.85;33.77
49178;BME280;35016;55.674;37.468;2023-06-14T05:26:39;99450.44;;;18.92;33.80
49178;BME280;35016;55.674;37.468;2023-06-14T05:29:06;99445.94;;;18.96;33.84
49178;BME280;35016;55.674;37.468;2023-06-14T05:31:33;99447.41;;;19.02;33.67
49178;BME280;35016;55.674;37.468;2023-06-14T05:34:00;99443.91;;;19.10;33.70
49178;BME280;35016;55.674;37.468;2023-06-14T05:36:30;99440.72;;;19.17;33.70
49178;BME280;35016;55.674;37.468;2023-06-14T05:38:57;99442.66;;;19.25;33.53
49178;BME280;35016;55.674;37.468;2023-06-14T05:41:26;99449.63;;;19.31;33.58
49178;BME280;35016;55.674;37.468;2023-06-14T05:43:54;99453.88;;;19.37;33.53
49178;BME280;35016;55.674;37.468;2023-06-14T05:46:22;99453.41;;;19.44;33.57
49178;BME280;35016;55.674;37.468;2023-06-14T05:48:51;99452.47;;;19.48;33.62
49178;BME280;35016;55.674;37.468;2023-06-14T05:51:18;99455.09;;;19.54;33.48
49178;BME280;35016;55.674;37.468;2023-06-14T05:53:46;99449.44;;;19.59;33.46
49178;BME280;35016;55.674;37.468;2023-06-14T05:56:13;99455.09;;;19.62;33.51
49178;BME280;35016;55.674;37.468;2023-06-14T05:58:40;99463.22;;;19.67;33.51
49178;BME280;35016;55.674;37.468;2023-06-14T06:01:07;99460.00;;;19.74;33.36
49178;BME280;35016;55.674;37.468;2023-06-14T06:03:34;99462.59;;;19.79;33.37
49178;BME280;35016;55.674;37.468;2023-06-14T06:06:01;99460.50;;;19.85;33.17
49178;BME280;35016;55.674;37.468;2023-06-14T06:08:29;99454.00;;;19.89;33.31
49178;BME280;35016;55.674;37.468;2023-06-14T06:10:57;99463.25;;;19.93;33.20
49178;BME280;35016;55.674;37.468;2023-06-14T06:13:25;99464.56;;;19.96;33.13
49178;BME280;35016;55.674;37.468;2023-06-14T06:15:52;99468.63;;;19.98;33.03
49178;BME280;35016;55.674;37.468;2023-06-14T06:18:19;99463.28;;;20.02;33.19
49178;BME280;35016;55.674;37.468;2023-06-14T06:20:45;99452.41;;;20.05;33.00
49178;BME280;35016;55.674;37.468;2023-06-14T06:23:13;99454.19;;;20.10;33.02
49178;BME280;35016;55.674;37.468;2023-06-14T06:25:40;99463.09;;;20.16;33.06
49178;BME280;35016;55.674;37.468;2023-06-14T06:28:07;99459.84;;;20.22;33.00
49178;BME280;35016;55.674;37.468;2023-06-14T06:30:34;99443.53;;;20.26;32.85
49178;BME280;35016;55.674;37.468;2023-06-14T06:33:02;99459.41;;;20.29;33.00
49178;BME280;35016;55.674;37.468;2023-06-14T06:35:30;99450.81;;;20.30;32.94
49178;BME280;35016;55.674;37.468;2023-06-14T06:37:57;99452.59;;;20.35;32.83
49178;BME280;35016;55.674;37.468;2023-06-14T06:40:24;99448.03;;;20.39;32.84
49178;BME280;35016;55.674;37.468;2023-06-14T06:42:51;99454.88;;;20.41;32.89
49178;BME280;35016;55.674;37.468;2023-06-14T06:45:19;99444.00;;;20.45;32.77
49178;BME280;35016;55.674;37.468;2023-06-14T06:47:48;99444.00;;;20.45;32.82
49178;BME280;35016;55.674;37.468;2023-06-14T06:50:15;99444.00;;;20.45;32.57
49178;BME280;35016;55.674;37.468;2023-06-14T06:52:42;99444.97;;;20.49;32.63
49178;BME280;35016;55.674;37.468;2023-06-14T06:55:09;99443.69;;;20.55;32.72
49178;BME280;35016;55.674;37.468;2023-06-14T06:57:38;99441.56;;;20.61;32.77
49178;BME280;35016;55.674;37.468;2023-06-14T07:00:05;99443.00;;;20.67;32.59
49178;BME280;35016;55.674;37.468;2023-06-14T07:02:35;99444.13;;;20.75;32.56
49178;BME280;35016;55.674;37.468;2023-06-14T07:05:03;99432.91;;;20.80;32.39
49178;BME280;35016;55.674;37.468;2023-06-14T07:07:31;99438.25;;;20.85;32.40
49178;BME280;35016;55.674;37.468;2023-06-14T07:09:58;99441.16;;;20.88;32.30
49178;BME280;35016;55.674;37.468;2023-06-14T07:12:26;99442.59;;;20.94;32.22
49178;BME280;35016;55.674;37.468;2023-06-14T07:14:53;99434.16;;;20.99;32.33
49178;BME280;35016;55.674;37.468;2023-06-14T07:17:20;99440.75;;;21.07;32.15
49178;BME280;35016;55.674;37.468;2023-06-14T07:19:47;99433.94;;;21.13;32.26
49178;BME280;35016;55.674;37.468;2023-06-14T07:22:15;99437.00;;;21.20;32.10
49178;BME280;35016;55.674;37.468;2023-06-14T07:24:42;99439.59;;;21.25;31.99
49178;BME280;35016;55.674;37.468;2023-06-14T07:27:09;99448.47;;;21.31;32.10
49178;BME280;35016;55.674;37.468;2023-06-14T07:29:40;99436.78;;;21.34;32.06
49178;BME280;35016;55.674;37.468;2023-06-14T07:32:07;99436.97;;;21.29;32.05
49178;BME280;35016;55.674;37.468;2023-06-14T07:34:34;99437.16;;;21.24;31.92
49178;BME280;35016;55.674;37.468;2023-06-14T07:37:02;99429.38;;;21.17;32.16
49178;BME280;35016;55.674;37.468;2023-06-14T07:39:29;99438.00;;;21.16;32.13
49178;BME280;35016;55.674;37.468;2023-06-14T07:41:55;99428.56;;;21.17;32.18
49178;BME280;35016;55.674;37.468;2023-06-14T07:44:22;99428.72;;;21.20;32.00
49178;BME280;35016;55.674;37.468;2023-06-14T07:46:49;99421.91;;;21.26;32.06
49178;BME280;35016;55.674;37.468;2023-06-14T07:49:16;99421.84;;;21.35;31.95
49178;BME280;35016;55.674;37.468;2023-06-14T07:51:43;99430.44;;;21.42;31.98
49178;BME280;35016;55.674;37.468;2023-06-14T07:54:11;99424.53;;;21.52;31.83
49178;BME280;35016;55.674;37.468;2023-06-14T07:56:38;99424.13;;;21.62;31.78
49178;BME280;35016;55.674;37.468;2023-06-14T07:59:07;99426.03;;;21.71;31.68
49178;BME280;35016;55.674;37.468;2023-06-14T08:01:34;99434.78;;;21.73;31.67
49178;BME280;35016;55.674;37.468;2023-06-14T08:04:01;99428.00;;;21.70;31.61
49178;BME280;35016;55.674;37.468;2023-06-14T08:06:28;99424.09;;;21.71;31.74
49178;BME280;35016;55.674;37.468;2023-06-14T08:08:55;99435.75;;;21.77;31.69
49178;BME280;35016;55.674;37.468;2023-06-14T08:11:22;99427.59;;;21.80;31.61
49178;BME280;35016;55.674;37.468;2023-06-14T08:13:50;99426.09;;;21.83;31.71
49178;BME280;35016;55.674;37.468;2023-06-14T08:16:17;99427.25;;;21.82;31.50
49178;BME280;35016;55.674;37.468;2023-06-14T08:18:44;99432.44;;;21.83;31.65
49178;BME280;35016;55.674;37.468;2023-06-14T08:21:11;99409.00;;;21.89;31.62
49178;BME280;35016;55.674;37.468;2023-06-14T08:23:40;99430.75;;;21.91;31.59
49178;BME280;35016;55.674;37.468;2023-06-14T08:26:08;99429.59;;;21.92;31.55
49178;BME280;35016;55.674;37.468;2023-06-14T08:28:35;99434.13;;;21.96;31.58
49178;BME280;35016;55.674;37.468;2023-06-14T08:31:02;99431.97;;;22.02;31.51
49178;BME280;35016;55.674;37.468;2023-06-14T08:33:29;99436.19;;;22.08;31.58
49178;BME280;35016;55.674;37.468;2023-06-14T08:35:56;99428.16;;;22.15;31.31
49178;BME280;35016;55.674;37.468;2023-06-14T08:38:23;99428.97;;;22.16;31.36
49178;BME280;35016;55.674;37.468;2023-06-14T08:40:50;99431.50;;;22.21;31.36
49178;BME280;35016;55.674;37.468;2023-06-14T08:43:18;99428.69;;;22.30;31.24
49178;BME280;35016;55.674;37.468;2023-06-14T08:45:46;99418.47;;;22.42;31.26
49178;BME280;35016;55.674;37.468;2023-06-14T08:48:14;99418.19;;;22.56;31.09
49178;BME280;35016;55.674;37.468;2023-06-14T08:50:44;99406.69;;;22.66;31.05
49178;BME280;35016;55.674;37.468;2023-06-14T08:53:12;99414.31;;;22.69;31.06
49178;BME280;35016;55.674;37.468;2023-06-14T08:55:46;99411.09;;;22.67;31.01
49178;BME280;35016;55.674;37.468;2023-06-14T08:58:14;99408.44;;;22.71;30.98
49178;BME280;35016;55.674;37.468;2023-06-14T09:00:41;99416.03;;;22.74;30.98
49178;BME280;35016;55.674;37.468;2023-06-14T09:03:10;99419.72;;;22.78;31.07
49178;BME280;35016;55.674;37.468;2023-06-14T09:05:40;99410.94;;;22.84;31.03
49178;BME280;35016;55.674;37.468;2023-06-14T09:08:07;99405.16;;;22.90;30.90
49178;BME280;35016;55.674;37.468;2023-06-14T09:10:34;99397.69;;;22.90;30.97
49178;BME280;35016;55.674;37.468;2023-06-14T09:13:04;99392.16;;;22.90;30.99
49178;BME280;35016;55.674;37.468;2023-06-14T09:15:32;99385.94;;;22.93;30.95
49178;BME280;35016;55.674;37.468;2023-06-14T09:18:03;99390.66;;;22.93;30.90
49178;BME280;35016;55.674;37.468;2023-06-14T09:20:30;99392.63;;;22.92;30.87
49178;BME280;35016;55.674;37.468;2023-06-14T09:22:58;99388.34;;;22.95;30.81
49178;BME280;35016;55.674;37.468;2023-06-14T09:25:25;99391.13;;;22.95;30.76
49178;BME280;35016;55.674;37.468;2023-06-14T09:27:56;99397.22;;;23.00;30.86
49178;BME280;35016;55.674;37.468;2023-06-14T09:30:23;99390.41;;;23.10;30.78
49178;BME280;35016;55.674;37.468;2023-06-14T09:32:50;99386.88;;;23.22;30.64
49178;BME280;35016;55.674;37.468;2023-06-14T09:35:17;99392.38;;;23.34;30.60
49178;BME280;35016;55.674;37.468;2023-06-14T09:37:45;99398.63;;;23.43;30.54
49178;BME280;35016;55.674;37.468;2023-06-14T09:40:12;99390.78;;;23.45;30.46
49178;BME280;35016;55.674;37.468;2023-06-14T09:42:39;99390.44;;;23.46;30.49
49178;BME280;35016;55.674;37.468;2023-06-14T09:45:08;99397.56;;;23.47;30.44
49178;BME280;35016;55.674;37.468;2023-06-14T09:47:37;99387.31;;;23.48;30.40
49178;BME280;35016;55.674;37.468;2023-06-14T09:50:15;99385.44;;;23.52;30.43
49178;BME280;35016;55.674;37.468;2023-06-14T09:52:43;99383.63;;;23.56;30.37
49178;BME280;35016;55.674;37.468;2023-06-14T09:57:38;99379.56;;;23.66;30.32
49178;BME280;35016;55.674;37.468;2023-06-14T10:00:07;99388.91;;;23.73;30.33
49178;BME280;35016;55.674;37.468;2023-06-14T10:02:39;99374.72;;;23.75;30.22
49178;BME280;35016;55.674;37.468;2023-06-14T10:05:09;99368.81;;;23.76;30.33
49178;BME280;35016;55.674;37.468;2023-06-14T10:10:10;99369.78;;;23.96;30.16
49178;BME280;35016;55.674;37.468;2023-06-14T10:12:38;99365.97;;;24.01;30.01
49178;BME280;35016;55.674;37.468;2023-06-14T10:15:05;99361.47;;;23.96;30.10
49178;BME280;35016;55.674;37.468;2023-06-14T10:17:46;99363.78;;;23.94;29.98
49178;BME280;35016;55.674;37.468;2023-06-14T10:23:02;99354.78;;;23.97;30.19
49178;BME280;35016;55.674;37.468;2023-06-14T10:25:30;99349.84;;;23.91;30.21
49178;BME280;35016;55.674;37.468;2023-06-14T10:31:04;99359.09;;;23.83;30.08
49178;BME280;35016;55.674;37.468;2023-06-14T10:33:32;99349.03;;;23.90;30.11
49178;BME280;35016;55.674;37.468;2023-06-14T10:36:08;99354.78;;;23.97;30.10
49178;BME280;35016;55.674;37.468;2023-06-14T10:38:36;99344.72;;;24.05;30.04
49178;BME280;35016;55.674;37.468;2023-06-14T10:41:04;99346.53;;;24.13;30.02
49178;BME280;35016;55.674;37.468;2023-06-14T10:43:31;99344.31;;;24.19;29.89
49178;BME280;35016;55.674;37.468;2023-06-14T10:46:14;99339.31;;;24.24;30.04
49178;BME280;35016;55.674;37.468;2023-06-14T10:48:42;99336.41;;;24.33;29.94
49178;BME280;35016;55.674;37.468;2023-06-14T10:51:18;99335.44;;;24.41;29.79
49178;BME280;35016;55.674;37.468;2023-06-14T10:53:50;99334.47;;;24.49;29.90
49178;BME280;35016;55.674;37.468;2023-06-14T10:56:27;99327.13;;;24.57;29.74
49178;BME280;35016;55.674;37.468;2023-06-14T10:58:55;99324.91;;;24.62;29.62
49178;BME280;35016;55.674;37.468;2023-06-14T11:04:00;99321.25;;;24.58;29.50
49178;BME280;35016;55.674;37.468;2023-06-14T11:06:38;99323.81;;;24.51;29.84
49178;BME280;35016;55.674;37.468;2023-06-14T11:11:37;99322.22;;;24.50;29.91
49178;BME280;35016;55.674;37.468;2023-06-14T11:14:05;99311.56;;;24.52;29.90
49178;BME280;35016;55.674;37.468;2023-06-14T11:16:33;99324.25;;;24.53;29.84
49178;BME280;35016;55.674;37.468;2023-06-14T11:19:00;99325.88;;;24.54;29.84
49178;BME280;35016;55.674;37.468;2023-06-14T11:21:27;99320.44;;;24.58;29.81
49178;BME280;35016;55.674;37.468;2023-06-14T11:23:58;99315.72;;;24.58;29.48
49178;BME280;35016;55.674;37.468;2023-06-14T11:26:33;99318.56;;;24.62;29.66
49178;BME280;35016;55.674;37.468;2023-06-14T11:29:02;99317.31;;;24.75;29.55
49178;BME280;35016;55.674;37.468;2023-06-14T11:31:29;99313.44;;;24.95;29.20
49178;BME280;35016;55.674;37.468;2023-06-14T11:33:57;99315.31;;;25.23;29.29
49178;BME280;35016;55.674;37.468;2023-06-14T11:36:28;99305.66;;;25.52;28.90
49178;BME280;35016;55.674;37.468;2023-06-14T11:38:59;99317.59;;;25.72;28.29
49178;BME280;35016;55.674;37.468;2023-06-14T11:41:31;99312.78;;;25.88;28.22
49178;BME280;35016;55.674;37.468;2023-06-14T11:43:59;99309.16;;;26.26;28.48
49178;BME280;35016;55.674;37.468;2023-06-14T11:46:26;99307.72;;;26.78;28.37
49178;BME280;35016;55.674;37.468;2023-06-14T11:48:53;99306.53;;;27.28;28.01
49178;BME280;35016;55.674;37.468;2023-06-14T11:51:20;99302.53;;;27.82;28.09
49178;BME280;35016;55.674;37.468;2023-06-14T11:53:47;99297.59;;;28.39;28.05
49178;BME280;35016;55.674;37.468;2023-06-14T11:56:15;99291.75;;;28.95;28.06
49178;BME280;35016;55.674;37.468;2023-06-14T11:58:43;99304.13;;;29.56;28.19
49178;BME280;35016;55.674;37.468;2023-06-14T12:01:14;99294.00;;;30.32;28.28
49178;BME280;35016;55.674;37.468;2023-06-14T12:03:47;99294.88;;;31.18;28.14
49178;BME280;35016;55.674;37.468;2023-06-14T12:06:15;99297.84;;;31.94;27.85
49178;BME280;35016;55.674;37.468;2023-06-14T12:08:42;99296.66;;;32.61;27.90
49178;BME280;35016;55.674;37.468;2023-06-14T12:11:12;99277.94;;;33.37;27.56
49178;BME280;35016;55.674;37.468;2023-06-14T12:13:40;99276.88;;;34.23;27.43
49178;BME280;35016;55.674;37.468;2023-06-14T12:16:08;99282.03;;;35.05;26.66
49178;BME280;35016;55.674;37.468;2023-06-14T12:18:36;99272.09;;;35.80;25.66
49178;BME280;35016;55.674;37.468;2023-06-14T12:21:04;99277.59;;;36.43;25.44
49178;BME280;35016;55.674;37.468;2023-06-14T12:23:43;99278.66;;;36.98;26.51
49178;BME280;35016;55.674;37.468;2023-06-14T12:26:14;99272.13;;;37.46;25.28
49178;BME280;35016;55.674;37.468;2023-06-14T12:28:42;99270.81;;;37.92;25.96
49178;BME280;35016;55.674;37.468;2023-06-14T12:31:12;99264.63;;;38.35;25.89
49178;BME280;35016;55.674;37.468;2023-06-14T12:33:40;99273.00;;;38.64;25.46
49178;BME280;35016;55.674;37.468;2023-06-14T12:36:08;99261.94;;;38.92;25.27
49178;BME280;35016;55.674;37.468;2023-06-14T12:38:36;99267.28;;;38.90;26.15
49178;BME280;35016;55.674;37.468;2023-06-14T12:41:05;99269.47;;;38.73;26.55
49178;BME280;35016;55.674;37.468;2023-06-14T12:43:32;99267.00;;;38.50;26.09
49178;BME280;35016;55.674;37.468;2023-06-14T12:46:00;99259.50;;;38.56;26.50
49178;BME280;35016;55.674;37.468;2023-06-14T12:48:27;99256.75;;;38.90;25.65
49178;BME280;35016;55.674;37.468;2023-06-14T12:50:56;99257.53;;;39.25;24.57
49178;BME280;35016;55.674;37.468;2023-06-14T12:53:23;99263.72;;;39.46;24.43
49178;BME280;35016;55.674;37.468;2023-06-14T12:55:50;99255.75;;;39.53;24.29
49178;BME280;35016;55.674;37.468;2023-06-14T12:58:17;99264.44;;;39.59;25.59
49178;BME280;35016;55.674;37.468;2023-06-14T13:00:47;99258.16;;;39.42;25.62
49178;BME280;35016;55.674;37.468;2023-06-14T13:03:14;99259.69;;;39.34;24.50
49178;BME280;35016;55.674;37.468;2023-06-14T13:05:41;99253.22;;;39.55;24.45
49178;BME280;35016;55.674;37.468;2023-06-14T13:08:09;99250.16;;;39.93;24.59
49178;BME280;35016;55.674;37.468;2023-06-14T13:10:37;99246.75;;;39.99;24.04